Spilsby, United Kingdom
Current Conditions -  °F | °C
As of 1:50 AM on Sunday 21 Dec 2014 (Local Time) from EGXC Reporting Station
Broken Clouds Broken Clouds  
Wind Chill: 40°   Ceiling: 4200
Heat Index: 45°   Visibility: 6mi
Dew Point: 39°   Wind: 9mph
Humidity: 81%   Direction: 210°SSW
Pressure: 30.33"   Gusts: NA
Location:  53.17°N, 0.09°E
Report Text: EGXC 210150Z 21008KT 9999 BKN042 07/04 Q1027 BLU
Loading
Personal Weather Stations






























Interactive Weather Map New forecast layout! Learn more

10-Day Weather Forecast

Advertisements
Track Severe Weather on mobile